Carthage, North Carolina
Current Conditions -  °F | °C
As of 4:35 AM on Sunday 23 Nov 2014 (Local Time) from KSOP Reporting Station
Clear Clear  
Wind Chill:   Ceiling: Unl
Heat Index:   Visibility: 10mi
Dew Point: -3°   Wind: 0mph
Humidity: 61%   Direction: NA
Pressure: 30.26"   Gusts: NA
Location:  35.35°N, 79.42°W
Report Text: KSOP 230935Z AUTO 00000KT 10SM CLR 04/M03 A3026 RMK AO1
Loading
Personal Weather Stations






























Interactive Weather Map New forecast layout! Learn more

10-Day Weather Forecast

Advertisements
Track Severe Weather on mobile